sensor_id;sensor_type;location;lat;lon;timestamp;pressure;altitude;pressure_sealevel;temperature;humidity
71194;BME280;58903;47.210;8.618;2023-04-30T00:01:30;94238.06;;;26.70;40.55
71194;BME280;58903;47.210;8.618;2023-04-30T00:04:07;94235.31;;;26.70;40.61
71194;BME280;58903;47.210;8.618;2023-04-30T00:06:44;94238.06;;;26.70;40.73
71194;BME280;58903;47.210;8.618;2023-04-30T00:09:10;94241.56;;;26.70;40.14
71194;BME280;58903;47.210;8.618;2023-04-30T00:11:43;94238.06;;;26.70;40.10
71194;BME280;58903;47.210;8.618;2023-04-30T00:14:35;94240.81;;;26.70;40.95
71194;BME280;58903;47.210;8.618;2023-04-30T00:17:05;94248.34;;;26.69;40.34
71194;BME280;58903;47.210;8.618;2023-04-30T00:19:42;94244.13;;;26.68;40.67
71194;BME280;58903;47.210;8.618;2023-04-30T00:22:15;94240.59;;;26.68;40.50
71194;BME280;58903;47.210;8.618;2023-04-30T00:24:41;94246.13;;;26.68;40.45
71194;BME280;58903;47.210;8.618;2023-04-30T00:27:11;94238.38;;;26.66;40.48
71194;BME280;58903;47.210;8.618;2023-04-30T00:29:46;94238.38;;;26.66;40.82
71194;BME280;58903;47.210;8.618;2023-04-30T00:32:22;94237.63;;;26.66;40.51
71194;BME280;58903;47.210;8.618;2023-04-30T00:34:50;94237.63;;;26.66;40.34
71194;BME280;58903;47.210;8.618;2023-04-30T00:37:21;94243.13;;;26.66;41.11
71194;BME280;58903;47.210;8.618;2023-04-30T00:39:53;94242.38;;;26.65;40.81
71194;BME280;58903;47.210;8.618;2023-04-30T00:42:26;94236.13;;;26.65;40.94
71194;BME280;58903;47.210;8.618;2023-04-30T00:45:11;94236.13;;;26.65;41.15
71194;BME280;58903;47.210;8.618;2023-04-30T00:47:38;94234.63;;;26.64;41.14
71194;BME280;58903;47.210;8.618;2023-04-30T00:50:07;94228.38;;;26.63;41.01
71194;BME280;58903;47.210;8.618;2023-04-30T00:52:49;94229.13;;;26.64;40.11
71194;BME280;58903;47.210;8.618;2023-04-30T00:55:34;94217.34;;;26.63;40.54
71194;BME280;58903;47.210;8.618;2023-04-30T00:58:00;94223.59;;;26.64;40.49
71194;BME280;58903;47.210;8.618;2023-04-30T01:00:26;94218.81;;;26.64;41.12
71194;BME280;58903;47.210;8.618;2023-04-30T01:02:54;94222.53;;;26.67;40.74
71194;BME280;58903;47.210;8.618;2023-04-30T01:05:22;94223.06;;;26.65;40.77
71194;BME280;58903;47.210;8.618;2023-04-30T01:07:49;94225.09;;;26.65;40.41
71194;BME280;58903;47.210;8.618;2023-04-30T01:10:58;94221.06;;;26.66;41.11
71194;BME280;58903;47.210;8.618;2023-04-30T01:13:33;94221.06;;;26.66;40.74
71194;BME280;58903;47.210;8.618;2023-04-30T01:16:18;94219.56;;;26.65;40.54
71194;BME280;58903;47.210;8.618;2023-04-30T01:18:53;94216.31;;;26.66;40.77
71194;BME280;58903;47.210;8.618;2023-04-30T01:21:31;94216.31;;;26.66;40.84
71194;BME280;58903;47.210;8.618;2023-04-30T01:29:56;94211.28;;;26.65;40.54
71194;BME280;58903;47.210;8.618;2023-04-30T01:32:24;94207.06;;;26.64;41.15
71194;BME280;58903;47.210;8.618;2023-04-30T01:34:50;94212.56;;;26.64;40.99
71194;BME280;58903;47.210;8.618;2023-04-30T01:40:17;94206.31;;;26.63;40.58
71194;BME280;58903;47.210;8.618;2023-04-30T01:46:08;94200.25;;;26.65;41.05
71194;BME280;58903;47.210;8.618;2023-04-30T01:51:59;94209.81;;;26.64;40.62
71194;BME280;58903;47.210;8.618;2023-04-30T01:57:55;94204.78;;;26.62;40.22
71194;BME280;58903;47.210;8.618;2023-04-30T02:00:14;94204.06;;;26.62;41.13
71194;BME280;58903;47.210;8.618;2023-04-30T02:02:53;94197.06;;;26.61;40.64
71194;BME280;58903;47.210;8.618;2023-04-30T02:05:43;94202.78;;;26.63;40.93
71194;BME280;58903;47.210;8.618;2023-04-30T02:08:27;94206.31;;;26.63;40.29
71194;BME280;58903;47.210;8.618;2023-04-30T02:11:25;94202.78;;;26.63;41.02
71194;BME280;58903;47.210;8.618;2023-04-30T02:13:53;94193.03;;;26.62;40.76
71194;BME280;58903;47.210;8.618;2023-04-30T02:16:20;94184.53;;;26.60;41.01
71194;BME280;58903;47.210;8.618;2023-04-30T02:19:12;94188.78;;;26.61;40.55
71194;BME280;58903;47.210;8.618;2023-04-30T02:21:49;94185.78;;;26.59;40.96
71194;BME280;58903;47.210;8.618;2023-04-30T02:24:16;94188.56;;;26.59;41.19
71194;BME280;58903;47.210;8.618;2023-04-30T02:26:50;94183.34;;;26.55;40.72
71194;BME280;58903;47.210;8.618;2023-04-30T02:29:28;94197.06;;;26.61;40.45
71194;BME280;58903;47.210;8.618;2023-04-30T02:32:07;94205.31;;;26.61;40.84
71194;BME280;58903;47.210;8.618;2023-04-30T02:34:42;94191.84;;;26.57;41.01
71194;BME280;58903;47.210;8.618;2023-04-30T02:37:08;94190.06;;;26.60;40.77
71194;BME280;58903;47.210;8.618;2023-04-30T02:39:34;94190.72;;;26.66;40.71
71194;BME280;58903;47.210;8.618;2023-04-30T02:42:00;94192.72;;;26.65;40.80
71194;BME280;58903;47.210;8.618;2023-04-30T02:44:26;94193.47;;;26.66;41.13
71194;BME280;58903;47.210;8.618;2023-04-30T02:46:52;94188.72;;;26.66;40.72
71194;BME280;58903;47.210;8.618;2023-04-30T02:49:37;94193.47;;;26.66;40.99
71194;BME280;58903;47.210;8.618;2023-04-30T02:52:37;94187.97;;;26.66;40.34
71194;BME280;58903;47.210;8.618;2023-04-30T02:55:14;94189.44;;;26.67;41.02
71194;BME280;58903;47.210;8.618;2023-04-30T02:57:41;94185.44;;;26.68;40.67
71194;BME280;58903;47.210;8.618;2023-04-30T03:00:08;94178.63;;;26.69;40.44
71194;BME280;58903;47.210;8.618;2023-04-30T03:02:34;94177.91;;;26.68;40.16
71194;BME280;58903;47.210;8.618;2023-04-30T03:05:02;94174.38;;;26.68;40.88
71194;BME280;58903;47.210;8.618;2023-04-30T03:07:29;94174.84;;;26.72;40.63
71194;BME280;58903;47.210;8.618;2023-04-30T03:09:57;94174.16;;;26.66;40.67
71194;BME280;58903;47.210;8.618;2023-04-30T03:12:33;94169.16;;;26.64;40.59
71194;BME280;58903;47.210;8.618;2023-04-30T03:15:19;94174.66;;;26.64;40.35
71194;BME280;58903;47.210;8.618;2023-04-30T03:17:55;94181.47;;;26.63;40.69
71194;BME280;58903;47.210;8.618;2023-04-30T03:20:47;94179.97;;;26.62;40.61
71194;BME280;58903;47.210;8.618;2023-04-30T03:23:13;94177.97;;;26.63;41.23
71194;BME280;58903;47.210;8.618;2023-04-30T03:26:10;94180.72;;;26.63;40.97
71194;BME280;58903;47.210;8.618;2023-04-30T03:28:46;94166.94;;;26.63;40.50
71194;BME280;58903;47.210;8.618;2023-04-30T03:31:41;94176.72;;;26.64;41.25
71194;BME280;58903;47.210;8.618;2023-04-30T03:34:32;94171.69;;;26.62;40.42
71194;BME280;58903;47.210;8.618;2023-04-30T03:37:01;94170.22;;;26.61;41.32
71194;BME280;58903;47.210;8.618;2023-04-30T03:39:28;94168.00;;;26.60;40.70
71194;BME280;58903;47.210;8.618;2023-04-30T03:41:54;94173.50;;;26.60;40.64
71194;BME280;58903;47.210;8.618;2023-04-30T03:44:32;94172.22;;;26.61;40.84
71194;BME280;58903;47.210;8.618;2023-04-30T03:46:58;94170.97;;;26.62;40.75
71194;BME280;58903;47.210;8.618;2023-04-30T03:49:27;94171.47;;;26.60;40.70
71194;BME280;58903;47.210;8.618;2023-04-30T03:52:01;94173.50;;;26.60;41.00
71194;BME280;58903;47.210;8.618;2023-04-30T03:54:30;94172.22;;;26.61;40.72
71194;BME280;58903;47.210;8.618;2023-04-30T03:57:27;94166.72;;;26.61;40.70
71194;BME280;58903;47.210;8.618;2023-04-30T04:00:13;94170.75;;;26.60;41.33
71194;BME280;58903;47.210;8.618;2023-04-30T04:02:51;94167.25;;;26.59;41.05
71194;BME280;58903;47.210;8.618;2023-04-30T04:05:25;94163.94;;;26.61;40.69
71194;BME280;58903;47.210;8.618;2023-04-30T04:08:09;94169.47;;;26.61;40.54
71194;BME280;58903;47.210;8.618;2023-04-30T04:10:44;94166.72;;;26.61;40.96
71194;BME280;58903;47.210;8.618;2023-04-30T04:13:12;94160.44;;;26.60;41.27
71194;BME280;58903;47.210;8.618;2023-04-30T04:16:16;94170.00;;;26.59;40.62
71194;BME280;58903;47.210;8.618;2023-04-30T04:18:42;94168.50;;;26.58;40.71
71194;BME280;58903;47.210;8.618;2023-04-30T04:21:19;94171.78;;;26.57;40.51
71194;BME280;58903;47.210;8.618;2023-04-30T04:24:06;94172.75;;;26.59;41.29
71194;BME280;58903;47.210;8.618;2023-04-30T04:26:36;94174.97;;;26.61;40.96
71194;BME280;58903;47.210;8.618;2023-04-30T04:29:15;94172.00;;;26.59;40.89
71194;BME280;58903;47.210;8.618;2023-04-30T04:31:55;94168.00;;;26.60;41.15
71194;BME280;58903;47.210;8.618;2023-04-30T04:34:21;94173.50;;;26.60;40.69
71194;BME280;58903;47.210;8.618;2023-04-30T04:36:58;94170.50;;;26.58;40.89
71194;BME280;58903;47.210;8.618;2023-04-30T04:39:24;94166.47;;;26.59;40.75
71194;BME280;58903;47.210;8.618;2023-04-30T04:42:05;94175.50;;;26.59;40.67
71194;BME280;58903;47.210;8.618;2023-04-30T04:44:45;94168.44;;;26.64;40.98
71194;BME280;58903;47.210;8.618;2023-04-30T04:47:14;94172.44;;;26.63;40.45
71194;BME280;58903;47.210;8.618;2023-04-30T04:49:41;94187.53;;;26.62;40.67
71194;BME280;58903;47.210;8.618;2023-04-30T04:52:15;94179.47;;;26.64;40.85
71194;BME280;58903;47.210;8.618;2023-04-30T04:54:43;94181.69;;;26.65;40.90
71194;BME280;58903;47.210;8.618;2023-04-30T04:57:28;94177.97;;;26.63;40.31
71194;BME280;58903;47.210;8.618;2023-04-30T05:00:05;94182.50;;;26.60;41.28
71194;BME280;58903;47.210;8.618;2023-04-30T05:02:35;94177.75;;;26.61;40.70
71194;BME280;58903;47.210;8.618;2023-04-30T05:05:03;94173.94;;;26.64;41.09
71194;BME280;58903;47.210;8.618;2023-04-30T05:11:12;94179.03;;;26.60;40.84
71194;BME280;58903;47.210;8.618;2023-04-30T05:13:55;94175.72;;;26.61;40.56
71194;BME280;58903;47.210;8.618;2023-04-30T05:16:43;94178.28;;;26.59;41.09
71194;BME280;58903;47.210;8.618;2023-04-30T05:19:27;94191.75;;;26.63;41.28
71194;BME280;58903;47.210;8.618;2023-04-30T05:21:55;94194.50;;;26.63;41.09
71194;BME280;58903;47.210;8.618;2023-04-30T05:24:53;94180.94;;;26.65;40.68
71194;BME280;58903;47.210;8.618;2023-04-30T05:27:23;94177.97;;;26.63;41.08
71194;BME280;58903;47.210;8.618;2023-04-30T05:29:59;94178.72;;;26.63;40.79
71194;BME280;58903;47.210;8.618;2023-04-30T05:32:39;94182.22;;;26.64;40.66
71194;BME280;58903;47.210;8.618;2023-04-30T05:35:20;94181.69;;;26.65;40.98
71194;BME280;58903;47.210;8.618;2023-04-30T05:38:13;94180.19;;;26.64;41.13
71194;BME280;58903;47.210;8.618;2023-04-30T05:40:39;94188.25;;;26.62;40.90
71194;BME280;58903;47.210;8.618;2023-04-30T05:43:30;94179.47;;;26.64;40.50
71194;BME280;58903;47.210;8.618;2023-04-30T05:46:15;94187.53;;;26.62;41.03
71194;BME280;58903;47.210;8.618;2023-04-30T05:48:51;94184.06;;;26.56;40.78
71194;BME280;58903;47.210;8.618;2023-04-30T05:51:19;94189.31;;;26.59;41.04
71194;BME280;58903;47.210;8.618;2023-04-30T05:53:45;94187.81;;;26.58;40.70
71194;BME280;58903;47.210;8.618;2023-04-30T05:56:12;94178.88;;;26.52;41.05
71194;BME280;58903;47.210;8.618;2023-04-30T05:58:40;94188.34;;;26.57;41.13
71194;BME280;58903;47.210;8.618;2023-04-30T06:01:23;94194.59;;;26.57;40.72
71194;BME280;58903;47.210;8.618;2023-04-30T06:03:54;94189.09;;;26.57;40.90
71194;BME280;58903;47.210;8.618;2023-04-30T06:06:21;94193.63;;;26.55;41.18
71194;BME280;58903;47.210;8.618;2023-04-30T06:08:47;94183.78;;;26.59;41.16
71194;BME280;58903;47.210;8.618;2023-04-30T06:11:21;94178.94;;;26.65;41.13
71194;BME280;58903;47.210;8.618;2023-04-30T06:14:22;94181.47;;;26.63;41.13
71194;BME280;58903;47.210;8.618;2023-04-30T06:16:50;94176.50;;;26.62;40.74
71194;BME280;58903;47.210;8.618;2023-04-30T06:19:35;94176.19;;;26.65;41.09
71194;BME280;58903;47.210;8.618;2023-04-30T06:22:03;94177.69;;;26.66;41.39
71194;BME280;58903;47.210;8.618;2023-04-30T06:24:30;94183.09;;;26.72;40.55
71194;BME280;58903;47.210;8.618;2023-04-30T06:27:01;94179.59;;;26.71;40.78
71194;BME280;58903;47.210;8.618;2023-04-30T06:29:28;94176.84;;;26.71;41.08
71194;BME280;58903;47.210;8.618;2023-04-30T06:31:53;94182.34;;;26.71;41.02
71194;BME280;58903;47.210;8.618;2023-04-30T06:34:20;94177.59;;;26.72;40.83
71194;BME280;58903;47.210;8.618;2023-04-30T06:37:03;94173.31;;;26.71;41.08
71194;BME280;58903;47.210;8.618;2023-04-30T06:39:31;94185.44;;;26.68;41.46
71194;BME280;58903;47.210;8.618;2023-04-30T06:41:58;94170.56;;;26.71;40.71
71194;BME280;58903;47.210;8.618;2023-04-30T06:44:24;94178.13;;;26.70;40.29
71194;BME280;58903;47.210;8.618;2023-04-30T06:46:50;94177.38;;;26.70;41.12
71194;BME280;58903;47.210;8.618;2023-04-30T06:49:16;94174.59;;;26.70;40.40
71194;BME280;58903;47.210;8.618;2023-04-30T06:51:42;94178.13;;;26.70;41.17
71194;BME280;58903;47.210;8.618;2023-04-30T06:54:08;94181.59;;;26.71;40.73
71194;BME280;58903;47.210;8.618;2023-04-30T06:56:36;94182.13;;;26.69;40.95
71194;BME280;58903;47.210;8.618;2023-04-30T06:59:04;94184.91;;;26.69;40.62
71194;BME280;58903;47.210;8.618;2023-04-30T07:01:33;94185.59;;;26.75;40.70
71194;BME280;58903;47.210;8.618;2023-04-30T07:04:00;94186.34;;;26.76;40.78
71194;BME280;58903;47.210;8.618;2023-04-30T07:06:33;94178.84;;;26.71;41.37
71194;BME280;58903;47.210;8.618;2023-04-30T07:09:03;94180.34;;;26.72;40.47
71194;BME280;58903;47.210;8.618;2023-04-30T07:11:31;94175.06;;;26.74;40.86
71194;BME280;58903;47.210;8.618;2023-04-30T07:14:03;94184.84;;;26.75;40.66
71194;BME280;58903;47.210;8.618;2023-04-30T07:16:31;94176.81;;;26.77;40.82
71194;BME280;58903;47.210;8.618;2023-04-30T07:19:29;94182.31;;;26.77;40.82
71194;BME280;58903;47.210;8.618;2023-04-30T07:22:06;94175.31;;;26.76;40.77
71194;BME280;58903;47.210;8.618;2023-04-30T07:24:43;94180.34;;;26.72;40.45
71194;BME280;58903;47.210;8.618;2023-04-30T07:27:26;94187.88;;;26.71;41.15
71194;BME280;58903;47.210;8.618;2023-04-30T07:29:53;94172.59;;;26.70;41.01
71194;BME280;58903;47.210;8.618;2023-04-30T07:32:36;94174.06;;;26.71;41.04
71194;BME280;58903;47.210;8.618;2023-04-30T07:35:13;94176.09;;;26.71;40.76
71194;BME280;58903;47.210;8.618;2023-04-30T07:37:40;94173.31;;;26.71;40.93
71194;BME280;58903;47.210;8.618;2023-04-30T07:40:11;94179.13;;;26.73;40.93
71194;BME280;58903;47.210;8.618;2023-04-30T07:42:46;94176.38;;;26.73;41.50
71194;BME280;58903;47.210;8.618;2023-04-30T07:45:26;94180.34;;;26.72;41.68
71194;BME280;58903;47.210;8.618;2023-04-30T07:47:52;94178.13;;;26.70;41.36
71194;BME280;58903;47.210;8.618;2023-04-30T07:50:21;94176.84;;;26.71;41.17
71194;BME280;58903;47.210;8.618;2023-04-30T07:52:48;94165.31;;;26.73;41.01
71194;BME280;58903;47.210;8.618;2023-04-30T07:55:35;94171.31;;;26.71;41.07
71194;BME280;58903;47.210;8.618;2023-04-30T07:58:11;94177.59;;;26.72;41.34
71194;BME280;58903;47.210;8.618;2023-04-30T08:00:48;94171.84;;;26.70;41.49
71194;BME280;58903;47.210;8.618;2023-04-30T08:03:30;94167.69;;;26.63;41.63
71194;BME280;58903;47.210;8.618;2023-04-30T08:06:24;94174.66;;;26.64;41.63
71194;BME280;58903;47.210;8.618;2023-04-30T08:08:55;94169.91;;;26.65;41.54
71194;BME280;58903;47.210;8.618;2023-04-30T08:11:23;94171.19;;;26.64;41.70
71194;BME280;58903;47.210;8.618;2023-04-30T08:13:57;94167.69;;;26.63;40.91
71194;BME280;58903;47.210;8.618;2023-04-30T08:16:29;94168.94;;;26.62;41.38
71194;BME280;58903;47.210;8.618;2023-04-30T08:19:03;94173.50;;;26.60;41.82
71194;BME280;58903;47.210;8.618;2023-04-30T08:21:38;94168.00;;;26.60;41.46
71194;BME280;58903;47.210;8.618;2023-04-30T08:24:21;94172.00;;;26.59;41.13
71194;BME280;58903;47.210;8.618;2023-04-30T08:27:05;94170.75;;;26.60;41.64
71194;BME280;58903;47.210;8.618;2023-04-30T08:29:39;94171.69;;;26.62;41.30
71194;BME280;58903;47.210;8.618;2023-04-30T08:32:10;94171.41;;;26.66;41.83
71194;BME280;58903;47.210;8.618;2023-04-30T08:34:49;94169.91;;;26.65;41.33
71194;BME280;58903;47.210;8.618;2023-04-30T08:37:22;94171.91;;;26.64;41.75
71194;BME280;58903;47.210;8.618;2023-04-30T08:39:48;94172.66;;;26.65;41.32
71194;BME280;58903;47.210;8.618;2023-04-30T08:42:52;94176.50;;;26.62;41.92
71194;BME280;58903;47.210;8.618;2023-04-30T08:45:38;94176.50;;;26.62;41.43
71194;BME280;58903;47.210;8.618;2023-04-30T08:48:10;94182.22;;;26.64;41.34
71194;BME280;58903;47.210;8.618;2023-04-30T08:50:43;94187.00;;;26.63;41.79
71194;BME280;58903;47.210;8.618;2023-04-30T08:53:33;94188.03;;;26.60;41.67
71194;BME280;58903;47.210;8.618;2023-04-30T08:56:37;94190.78;;;26.60;42.06
71194;BME280;58903;47.210;8.618;2023-04-30T08:59:21;94185.56;;;26.57;41.57
71194;BME280;58903;47.210;8.618;2023-04-30T09:02:00;94184.28;;;26.58;41.90
71194;BME280;58903;47.210;8.618;2023-04-30T09:04:29;94188.56;;;26.59;41.79
71194;BME280;58903;47.210;8.618;2023-04-30T09:06:59;94194.59;;;26.57;41.99
71194;BME280;58903;47.210;8.618;2023-04-30T09:09:29;94184.81;;;26.56;42.17
71194;BME280;58903;47.210;8.618;2023-04-30T09:12:16;94190.13;;;26.54;42.36
71194;BME280;58903;47.210;8.618;2023-04-30T09:15:04;94191.09;;;26.57;42.36
71194;BME280;58903;47.210;8.618;2023-04-30T09:17:35;94196.81;;;26.59;41.94
71194;BME280;58903;47.210;8.618;2023-04-30T09:20:12;94189.31;;;26.59;42.75
71194;BME280;58903;47.210;8.618;2023-04-30T09:23:09;94184.28;;;26.58;42.15
71194;BME280;58903;47.210;8.618;2023-04-30T09:26:10;94187.53;;;26.62;42.43
71194;BME280;58903;47.210;8.618;2023-04-30T09:28:57;94175.72;;;26.61;42.24
71194;BME280;58903;47.210;8.618;2023-04-30T09:31:37;94172.44;;;26.63;42.28
71194;BME280;58903;47.210;8.618;2023-04-30T09:34:08;94179.69;;;26.66;42.69
71194;BME280;58903;47.210;8.618;2023-04-30T09:36:50;94181.16;;;26.67;42.56
71194;BME280;58903;47.210;8.618;2023-04-30T09:39:28;94182.88;;;26.70;42.06
71194;BME280;58903;47.210;8.618;2023-04-30T09:42:07;94174.59;;;26.70;42.28
71194;BME280;58903;47.210;8.618;2023-04-30T09:45:12;94175.13;;;26.68;42.45
71194;BME280;58903;47.210;8.618;2023-04-30T09:47:53;94172.88;;;26.67;42.39
71194;BME280;58903;47.210;8.618;2023-04-30T09:50:20;94169.63;;;26.68;42.79
71194;BME280;58903;47.210;8.618;2023-04-30T09:53:11;94168.09;;;26.73;42.41
71194;BME280;58903;47.210;8.618;2023-04-30T09:55:48;94169.78;;;26.76;42.34
71194;BME280;58903;47.210;8.618;2023-04-30T09:58:27;94158.00;;;26.75;42.50
71194;BME280;58903;47.210;8.618;2023-04-30T10:00:57;94158.47;;;26.79;42.06
71194;BME280;58903;47.210;8.618;2023-04-30T10:03:25;94160.16;;;26.82;42.24
71194;BME280;58903;47.210;8.618;2023-04-30T10:05:51;94162.69;;;26.80;42.80
71194;BME280;58903;47.210;8.618;2023-04-30T10:08:26;94159.41;;;26.82;42.31
71194;BME280;58903;47.210;8.618;2023-04-30T10:11:04;94156.84;;;26.84;42.26
71194;BME280;58903;47.210;8.618;2023-04-30T10:13:40;94162.91;;;26.82;41.67
71194;BME280;58903;47.210;8.618;2023-04-30T10:16:14;94155.16;;;26.81;42.29
71194;BME280;58903;47.210;8.618;2023-04-30T10:18:45;94149.66;;;26.81;42.05
71194;BME280;58903;47.210;8.618;2023-04-30T10:21:17;94149.66;;;26.81;41.67
71194;BME280;58903;47.210;8.618;2023-04-30T10:23:47;94150.63;;;26.83;41.68
71194;BME280;58903;47.210;8.618;2023-04-30T10:26:16;94146.88;;;26.81;41.81
71194;BME280;58903;47.210;8.618;2023-04-30T10:28:43;94141.59;;;26.83;42.42
71194;BME280;58903;47.210;8.618;2023-04-30T10:31:11;94149.13;;;26.82;41.67
71194;BME280;58903;47.210;8.618;2023-04-30T10:36:43;94137.31;;;26.82;42.14
71194;BME280;58903;47.210;8.618;2023-04-30T10:39:11;94134.56;;;26.82;42.14
71194;BME280;58903;47.210;8.618;2023-04-30T10:41:44;94135.53;;;26.84;41.96
71194;BME280;58903;47.210;8.618;2023-04-30T10:44:21;94139.47;;;26.89;41.83
71194;BME280;58903;47.210;8.618;2023-04-30T10:46:57;94129.72;;;26.88;42.11
71194;BME280;58903;47.210;8.618;2023-04-30T10:49:24;94128.75;;;26.85;42.28
71194;BME280;58903;47.210;8.618;2023-04-30T10:51:51;94128.00;;;26.85;43.38
71194;BME280;58903;47.210;8.618;2023-04-30T10:54:38;94128.44;;;26.89;42.52
71194;BME280;58903;47.210;8.618;2023-04-30T11:02:43;94124.41;;;26.90;43.19
71194;BME280;58903;47.210;8.618;2023-04-30T11:08:16;94127.03;;;26.82;43.26
71194;BME280;58903;47.210;8.618;2023-04-30T11:10:57;94124.50;;;26.84;43.37
71194;BME280;58903;47.210;8.618;2023-04-30T11:13:27;94115.94;;;26.88;43.41
71194;BME280;58903;47.210;8.618;2023-04-30T11:16:01;94118.47;;;26.86;42.40
71194;BME280;58903;47.210;8.618;2023-04-30T11:18:28;94117.19;;;26.87;43.00
71194;BME280;58903;47.210;8.618;2023-04-30T11:20:56;94111.66;;;26.87;42.99
71194;BME280;58903;47.210;8.618;2023-04-30T11:23:25;94114.63;;;26.89;42.19
71194;BME280;58903;47.210;8.618;2023-04-30T11:25:57;94115.94;;;26.88;42.40
71194;BME280;58903;47.210;8.618;2023-04-30T11:28:26;94124.63;;;26.92;42.71
71194;BME280;58903;47.210;8.618;2023-04-30T11:30:54;94121.88;;;26.92;42.14
71194;BME280;58903;47.210;8.618;2023-04-30T11:33:32;94123.88;;;26.92;42.44
71194;BME280;58903;47.210;8.618;2023-04-30T11:36:00;94119.13;;;26.92;42.01
71194;BME280;58903;47.210;8.618;2023-04-30T11:38:58;94123.34;;;26.93;42.24
71194;BME280;58903;47.210;8.618;2023-04-30T11:41:39;94116.88;;;26.90;42.45
71194;BME280;58903;47.210;8.618;2023-04-30T11:47:52;94119.34;;;26.94;42.46
71194;BME280;58903;47.210;8.618;2023-04-30T11:50:23;94121.13;;;26.92;42.70
71194;BME280;58903;47.210;8.618;2023-04-30T11:52:59;94121.88;;;26.92;42.49
71194;BME280;58903;47.210;8.618;2023-04-30T11:55:40;94119.41;;;26.88;42.67
71194;BME280;58903;47.210;8.618;2023-04-30T11:58:14;94110.69;;;26.84;42.33
71194;BME280;58903;47.210;8.618;2023-04-30T12:00:42;94109.72;;;26.82;42.89
71194;BME280;58903;47.210;8.618;2023-04-30T12:03:13;94115.47;;;26.84;42.63
71194;BME280;58903;47.210;8.618;2023-04-30T12:05:44;94118.22;;;26.84;42.22
71194;BME280;58903;47.210;8.618;2023-04-30T12:08:12;94114.75;;;26.83;41.87
71194;BME280;58903;47.210;8.618;2023-04-30T12:10:44;94111.00;;;26.81;42.16
71194;BME280;58903;47.210;8.618;2023-04-30T12:13:25;94115.47;;;26.84;42.26
71194;BME280;58903;47.210;8.618;2023-04-30T12:16:01;94111.00;;;26.81;42.87
71194;BME280;58903;47.210;8.618;2023-04-30T12:18:36;94105.28;;;26.79;42.42
71194;BME280;58903;47.210;8.618;2023-04-30T12:21:03;94104.00;;;26.80;42.15
71194;BME280;58903;47.210;8.618;2023-04-30T12:23:32;94110.78;;;26.79;42.17
71194;BME280;58903;47.210;8.618;2023-04-30T12:26:10;94116.53;;;26.81;42.23
71194;BME280;58903;47.210;8.618;2023-04-30T12:29:15;94115.03;;;26.80;42.09
71194;BME280;58903;47.210;8.618;2023-04-30T12:31:50;94112.81;;;26.78;42.55
71194;BME280;58903;47.210;8.618;2023-04-30T12:34:17;94116.53;;;26.81;42.16
71194;BME280;58903;47.210;8.618;2023-04-30T12:36:52;94106.75;;;26.80;41.67
71194;BME280;58903;47.210;8.618;2023-04-30T12:39:33;94106.75;;;26.80;41.88
71194;BME280;58903;47.210;8.618;2023-04-30T12:42:18;94111.22;;;26.83;41.73
71194;BME280;58903;47.210;8.618;2023-04-30T12:44:55;94106.97;;;26.82;41.96
71194;BME280;58903;47.210;8.618;2023-04-30T12:47:50;94098.47;;;26.80;42.00
71194;BME280;58903;47.210;8.618;2023-04-30T12:50:22;94105.72;;;26.83;41.98
71194;BME280;58903;47.210;8.618;2023-04-30T12:53:08;94103.69;;;26.83;41.84
71194;BME280;58903;47.210;8.618;2023-04-30T12:58:48;94104.75;;;26.80;41.93
71194;BME280;58903;47.210;8.618;2023-04-30T13:01:23;94102.53;;;26.79;41.77
71194;BME280;58903;47.210;8.618;2023-04-30T13:03:51;94095.72;;;26.80;41.98
71194;BME280;58903;47.210;8.618;2023-04-30T13:06:18;94097.00;;;26.79;41.99
71194;BME280;58903;47.210;8.618;2023-04-30T13:09:15;94097.00;;;26.79;41.92
71194;BME280;58903;47.210;8.618;2023-04-30T13:12:11;94095.00;;;26.79;41.91
71194;BME280;58903;47.210;8.618;2023-04-30T13:14:47;94097.00;;;26.79;42.30
71194;BME280;58903;47.210;8.618;2023-04-30T13:17:27;94097.75;;;26.79;41.49
71194;BME280;58903;47.210;8.618;2023-04-30T13:20:03;94091.47;;;26.79;41.55
71194;BME280;58903;47.210;8.618;2023-04-30T13:22:47;94089.47;;;26.79;41.88
71194;BME280;58903;47.210;8.618;2023-04-30T13:25:14;94085.97;;;26.79;41.92
71194;BME280;58903;47.210;8.618;2023-04-30T13:27:45;94087.44;;;26.80;41.74
71194;BME280;58903;47.210;8.618;2023-04-30T13:30:13;94089.16;;;26.83;41.75
71194;BME280;58903;47.210;8.618;2023-04-30T13:32:48;94090.88;;;26.86;41.58
71194;BME280;58903;47.210;8.618;2023-04-30T13:35:49;94094.56;;;26.88;41.89
71194;BME280;58903;47.210;8.618;2023-04-30T13:38:16;94080.56;;;26.86;41.39
71194;BME280;58903;47.210;8.618;2023-04-30T13:40:54;94082.06;;;26.87;42.09
71194;BME280;58903;47.210;8.618;2023-04-30T13:43:23;94082.81;;;26.88;41.77
71194;BME280;58903;47.210;8.618;2023-04-30T13:45:56;94086.81;;;26.87;42.03
71194;BME280;58903;47.210;8.618;2023-04-30T13:48:23;94080.56;;;26.86;42.08
71194;BME280;58903;47.210;8.618;2023-04-30T13:50:55;94086.63;;;26.85;41.88
71194;BME280;58903;47.210;8.618;2023-04-30T13:53:31;94073.56;;;26.85;41.64
71194;BME280;58903;47.210;8.618;2023-04-30T13:56:10;94071.31;;;26.84;41.66
71194;BME280;58903;47.210;8.618;2023-04-30T13:58:38;94072.81;;;26.85;41.81
71194;BME280;58903;47.210;8.618;2023-04-30T14:01:05;94070.59;;;26.83;41.62
71194;BME280;58903;47.210;8.618;2023-04-30T14:03:58;94076.84;;;26.84;41.89
71194;BME280;58903;47.210;8.618;2023-04-30T14:07:00;94073.03;;;26.87;41.77
71194;BME280;58903;47.210;8.618;2023-04-30T14:09:36;94065.78;;;26.84;41.72
71194;BME280;58903;47.210;8.618;2023-04-30T14:12:03;94069.84;;;26.83;41.94
71194;BME280;58903;47.210;8.618;2023-04-30T14:14:31;94070.59;;;26.83;42.27
71194;BME280;58903;47.210;8.618;2023-04-30T14:17:28;94075.34;;;26.83;41.40
71194;BME280;58903;47.210;8.618;2023-04-30T14:20:05;94069.53;;;26.86;41.81
71194;BME280;58903;47.210;8.618;2023-04-30T14:22:40;94067.84;;;26.83;41.90
71194;BME280;58903;47.210;8.618;2023-04-30T14:25:21;94071.31;;;26.84;41.84